createdAt,value
2019-03-18T00:02:01.554Z,12.00
2019-03-18T00:04:29.751Z,12.00
2019-03-18T00:06:57.831Z,11.80
2019-03-18T00:12:43.433Z,13.10
2019-03-18T00:15:11.423Z,11.60
2019-03-18T00:17:47.421Z,11.20
2019-03-18T00:20:15.759Z,11.60
2019-03-18T00:22:43.923Z,11.50
2019-03-18T00:28:33.076Z,11.40
2019-03-18T00:31:01.904Z,11.10
2019-03-18T00:33:30.111Z,11.20
2019-03-18T00:35:58.473Z,11.20
2019-03-18T00:42:08.598Z,11.10
2019-03-18T00:44:36.937Z,11.10
2019-03-18T00:47:57.598Z,10.90
2019-03-18T00:51:10.459Z,10.90
2019-03-18T00:53:38.381Z,10.80
2019-03-18T00:56:05.846Z,10.90
2019-03-18T00:58:33.400Z,10.90
2019-03-18T01:01:01.113Z,11.20
2019-03-18T01:03:29.191Z,11.00
2019-03-18T01:05:59.987Z,11.00
2019-03-18T01:08:29.365Z,11.00
2019-03-18T01:10:59.098Z,10.90
2019-03-18T01:13:44.170Z,10.90
2019-03-18T01:16:14.188Z,10.90
2019-03-18T01:18:42.818Z,10.80
2019-03-18T01:21:11.531Z,10.70
2019-03-18T01:23:40.165Z,10.60
2019-03-18T01:26:10.780Z,10.60
2019-03-18T01:28:40.648Z,10.40
2019-03-18T01:31:08.300Z,10.50
2019-03-18T01:33:39.352Z,10.40
2019-03-18T01:36:10.034Z,10.30
2019-03-18T01:38:39.757Z,10.20
2019-03-18T01:41:11.269Z,10.20
2019-03-18T01:43:41.387Z,10.20
2019-03-18T01:46:26.083Z,10.10
2019-03-18T01:48:59.803Z,10.10
2019-03-18T01:58:39.317Z,9.80
2019-03-18T02:01:07.061Z,9.80
2019-03-18T02:03:34.687Z,9.80
2019-03-18T02:06:02.414Z,9.80
2019-03-18T02:08:30.024Z,9.80
2019-03-18T02:10:57.673Z,9.30
2019-03-18T02:13:25.399Z,9.00
2019-03-18T02:15:58.628Z,7.90
2019-03-18T02:18:38.750Z,7.60
2019-03-18T02:24:36.567Z,7.10
2019-03-18T02:27:49.041Z,6.80
2019-03-18T02:30:31.999Z,6.60
2019-03-18T02:33:11.739Z,6.50
2019-03-18T02:35:53.575Z,6.70
2019-03-18T02:38:32.907Z,6.60
2019-03-18T02:41:09.610Z,6.50
2019-03-18T02:43:42.914Z,6.60
2019-03-18T02:46:17.057Z,6.70
2019-03-18T02:48:51.122Z,6.60
2019-03-18T02:51:32.379Z,6.60
2019-03-18T02:54:09.661Z,6.50
2019-03-18T03:01:12.291Z,6.20
2019-03-18T03:04:04.465Z,6.10
2019-03-18T03:06:51.727Z,8.20
2019-03-18T03:09:59.492Z,5.90
2019-03-18T03:12:52.913Z,5.90
2019-03-18T03:15:22.821Z,5.80
2019-03-18T03:17:50.923Z,5.80
2019-03-18T03:20:22.748Z,5.90
2019-03-18T03:22:52.830Z,5.90
2019-03-18T03:25:25.333Z,6.00
2019-03-18T03:27:53.520Z,5.90
2019-03-18T03:30:24.547Z,6.00
2019-03-18T03:32:52.757Z,6.00
2019-03-18T03:35:20.601Z,6.10
2019-03-18T03:37:48.526Z,6.00
2019-03-18T03:40:16.822Z,6.00
2019-03-18T03:42:44.800Z,6.00
2019-03-18T03:45:12.964Z,6.10
2019-03-18T03:47:40.824Z,6.00
2019-03-18T03:50:08.933Z,5.90
2019-03-18T03:52:36.611Z,5.10
2019-03-18T03:55:04.585Z,6.00
2019-03-18T03:57:32.289Z,6.10
2019-03-18T04:00:00.472Z,6.10
2019-03-18T04:02:28.275Z,6.10
2019-03-18T04:04:55.938Z,6.20
2019-03-18T04:07:23.489Z,6.30
2019-03-18T04:09:51.071Z,6.30
2019-03-18T04:12:18.696Z,6.30
2019-03-18T04:14:46.245Z,6.20
2019-03-18T04:17:14.106Z,6.30
2019-03-18T04:19:41.715Z,6.20
2019-03-18T04:22:09.347Z,6.20
2019-03-18T04:24:37.075Z,6.10
2019-03-18T04:27:04.716Z,6.00
2019-03-18T04:29:32.343Z,6.00
2019-03-18T04:31:59.910Z,5.90
2019-03-18T04:34:27.490Z,5.80
2019-03-18T04:36:55.118Z,5.70
2019-03-18T04:39:22.764Z,5.70
2019-03-18T04:41:50.404Z,5.70
2019-03-18T04:44:18.376Z,5.70
2019-03-18T04:46:46.042Z,5.70
2019-03-18T04:49:13.613Z,5.60
2019-03-18T04:51:41.202Z,5.50
2019-03-18T04:54:08.875Z,5.60
2019-03-18T04:56:36.412Z,5.60
2019-03-18T04:59:03.994Z,5.50
2019-03-18T05:01:31.578Z,5.50
2019-03-18T05:03:59.140Z,5.50
2019-03-18T05:06:26.726Z,5.50
2019-03-18T05:08:55.177Z,5.40
2019-03-18T05:11:22.757Z,5.40
2019-03-18T05:13:50.530Z,5.40
2019-03-18T05:16:18.143Z,5.40
2019-03-18T05:18:45.775Z,5.40
2019-03-18T05:21:13.341Z,5.30
2019-03-18T05:23:40.944Z,5.40
2019-03-18T05:26:08.628Z,5.40
2019-03-18T05:28:36.141Z,5.50
2019-03-18T05:31:03.790Z,5.60
2019-03-18T05:33:31.411Z,5.60
2019-03-18T05:35:58.993Z,5.70
2019-03-18T05:38:26.600Z,5.70
2019-03-18T05:40:54.230Z,5.80
2019-03-18T05:43:21.755Z,5.80
2019-03-18T05:45:49.351Z,5.80
2019-03-18T05:48:16.943Z,5.70
2019-03-18T05:50:44.497Z,5.70
2019-03-18T05:53:12.091Z,5.80
2019-03-18T05:55:39.668Z,5.80
2019-03-18T05:58:07.263Z,5.80
2019-03-18T06:00:34.855Z,5.90
2019-03-18T06:03:02.433Z,5.90
2019-03-18T06:05:30.188Z,5.90
2019-03-18T06:07:57.803Z,5.80
2019-03-18T06:10:25.408Z,5.90
2019-03-18T06:12:53.013Z,5.90
2019-03-18T06:15:20.606Z,5.90
2019-03-18T06:17:52.774Z,5.90
2019-03-18T06:20:17.529Z,5.90
2019-03-18T06:22:45.138Z,5.90
2019-03-18T06:25:12.770Z,6.00
2019-03-18T06:27:40.378Z,6.00
2019-03-18T06:30:08.527Z,6.10
2019-03-18T06:32:36.124Z,6.10
2019-03-18T06:35:04.081Z,6.10
2019-03-18T06:37:31.625Z,6.10
2019-03-18T06:39:59.184Z,6.10
2019-03-18T06:42:26.783Z,6.10
2019-03-18T06:44:54.463Z,6.20
2019-03-18T06:47:22.048Z,6.10
2019-03-18T06:49:49.660Z,6.10
2019-03-18T06:52:17.302Z,6.10
2019-03-18T06:54:44.904Z,6.10
2019-03-18T06:57:12.690Z,6.20
2019-03-18T06:59:40.558Z,6.20
2019-03-18T07:02:08.563Z,6.20
2019-03-18T07:04:36.368Z,6.20
2019-03-18T07:07:03.964Z,6.20
2019-03-18T07:09:31.561Z,6.20
2019-03-18T07:11:59.190Z,6.30
2019-03-18T07:14:26.854Z,6.20
2019-03-18T07:16:54.433Z,6.20
2019-03-18T07:19:22.042Z,6.20
2019-03-18T07:21:49.651Z,6.10
2019-03-18T07:24:17.200Z,6.20
2019-03-18T07:26:45.071Z,6.20
2019-03-18T07:29:12.835Z,6.20
2019-03-18T07:31:40.620Z,6.10
2019-03-18T07:34:08.362Z,6.30
2019-03-18T07:36:36.045Z,6.30
2019-03-18T07:39:06.164Z,6.30
2019-03-18T07:41:33.756Z,6.40
2019-03-18T07:44:01.747Z,6.50
2019-03-18T07:46:29.464Z,6.50
2019-03-18T07:48:57.250Z,6.60
2019-03-18T07:51:24.831Z,6.60
2019-03-18T07:53:52.598Z,6.60
2019-03-18T07:56:20.341Z,6.60
2019-03-18T07:58:48.104Z,6.60
2019-03-18T08:01:15.961Z,6.50
2019-03-18T08:03:43.614Z,6.50
2019-03-18T08:06:11.321Z,6.20
2019-03-18T08:08:39.381Z,6.40
2019-03-18T08:11:07.344Z,6.30
2019-03-18T08:13:34.825Z,6.30
2019-03-18T08:16:02.575Z,6.30
2019-03-18T08:18:42.504Z,6.30
2019-03-18T08:21:00.512Z,6.30
2019-03-18T08:23:28.034Z,6.30
2019-03-18T08:25:55.609Z,6.20
2019-03-18T08:28:23.684Z,6.20
2019-03-18T08:30:51.319Z,6.30
2019-03-18T08:33:20.760Z,6.40
2019-03-18T08:35:48.400Z,6.30
2019-03-18T08:38:16.045Z,6.40
2019-03-18T08:40:43.618Z,6.50
2019-03-18T08:43:11.192Z,6.70
2019-03-18T08:45:38.765Z,6.60
2019-03-18T08:48:06.418Z,6.80
2019-03-18T08:50:34.119Z,6.80
2019-03-18T08:53:01.681Z,6.90
2019-03-18T08:55:29.231Z,6.90
2019-03-18T08:57:56.860Z,7.00
2019-03-18T09:00:24.404Z,6.90
2019-03-18T09:02:52.064Z,6.80
2019-03-18T09:05:19.924Z,6.80
2019-03-18T09:07:54.936Z,6.80
2019-03-18T09:10:23.235Z,6.80
2019-03-18T09:12:50.943Z,6.80
2019-03-18T09:15:18.952Z,6.80
2019-03-18T09:17:46.764Z,6.80
2019-03-18T09:20:14.622Z,7.00
2019-03-18T09:22:43.188Z,6.90
2019-03-18T09:25:11.439Z,7.00
2019-03-18T09:27:39.068Z,6.90
2019-03-18T09:30:08.307Z,7.20
2019-03-18T09:32:35.990Z,7.10
2019-03-18T09:35:03.766Z,7.10
2019-03-18T09:37:31.550Z,7.20
2019-03-18T09:39:59.197Z,7.10
2019-03-18T09:42:26.843Z,7.00
2019-03-18T09:44:54.529Z,7.00
2019-03-18T09:47:22.202Z,7.20
2019-03-18T09:49:50.398Z,7.10
2019-03-18T09:52:18.428Z,6.80
2019-03-18T09:54:46.392Z,10.30
2019-03-18T09:57:25.520Z,6.90
2019-03-18T09:59:45.170Z,6.80
2019-03-18T10:02:13.462Z,6.70
2019-03-18T10:04:41.337Z,6.40
2019-03-18T10:07:09.268Z,6.40
2019-03-18T10:09:37.335Z,6.40
2019-03-18T10:12:05.411Z,6.60
2019-03-18T10:14:33.439Z,6.20
2019-03-18T10:17:09.439Z,6.00
2019-03-18T10:19:33.790Z,6.00
2019-03-18T10:22:01.481Z,6.30
2019-03-18T10:24:29.589Z,6.00
2019-03-18T10:26:57.661Z,6.00
2019-03-18T10:29:25.595Z,5.90
2019-03-18T10:31:53.629Z,5.70
2019-03-18T10:34:23.258Z,5.80
2019-03-18T10:36:54.262Z,5.80
2019-03-18T10:39:22.629Z,5.90
2019-03-18T10:41:50.852Z,5.90
2019-03-18T10:44:19.052Z,6.00
2019-03-18T10:46:47.451Z,6.00
2019-03-18T10:49:17.791Z,6.00
2019-03-18T10:54:31.072Z,5.90
2019-03-18T10:56:58.803Z,6.00
2019-03-18T10:59:27.114Z,5.90
2019-03-18T11:01:55.146Z,7.90
2019-03-18T11:04:23.402Z,5.90
2019-03-18T11:06:50.998Z,5.90
2019-03-18T11:09:18.562Z,5.90
2019-03-18T11:11:46.206Z,5.90
2019-03-18T11:14:13.720Z,5.90
2019-03-18T11:16:41.267Z,5.90
2019-03-18T11:19:08.797Z,5.90
2019-03-18T11:21:36.324Z,5.80
2019-03-18T11:24:03.870Z,5.90
2019-03-18T11:26:31.390Z,5.90
2019-03-18T11:28:58.937Z,6.00
2019-03-18T11:31:26.521Z,6.00
2019-03-18T11:33:54.045Z,6.00
2019-03-18T11:36:21.616Z,6.20
2019-03-18T11:38:49.248Z,6.30
2019-03-18T11:41:17.604Z,6.10
2019-03-18T11:43:45.314Z,6.00
2019-03-18T11:46:12.913Z,6.00
2019-03-18T11:48:40.460Z,6.10
2019-03-18T11:51:07.970Z,6.10
2019-03-18T11:53:35.575Z,6.20
2019-03-18T11:56:03.260Z,6.50
2019-03-18T11:58:30.795Z,6.60
2019-03-18T12:00:58.554Z,6.80
2019-03-18T12:03:26.049Z,6.80
2019-03-18T12:05:53.608Z,6.70
2019-03-18T12:08:21.240Z,6.80
2019-03-18T12:10:48.915Z,6.80
2019-03-18T12:13:16.460Z,6.80
2019-03-18T12:15:44.077Z,6.70
2019-03-18T12:18:11.726Z,6.70
2019-03-18T12:20:39.335Z,6.80
2019-03-18T12:23:06.878Z,6.80
2019-03-18T12:25:34.532Z,6.90
2019-03-18T12:28:05.005Z,6.90
2019-03-18T12:30:31.524Z,6.90
2019-03-18T12:32:59.214Z,6.80
2019-03-18T12:35:26.812Z,7.00
2019-03-18T12:37:54.442Z,7.10
2019-03-18T12:40:22.155Z,7.20
2019-03-18T12:42:49.714Z,7.40
2019-03-18T12:45:17.221Z,7.30
2019-03-18T12:47:44.903Z,7.50
2019-03-18T12:50:13.765Z,7.50
2019-03-18T12:52:41.301Z,7.50
2019-03-18T12:55:11.042Z,7.50
2019-03-18T12:57:38.679Z,7.50
2019-03-18T13:00:09.582Z,7.50
2019-03-18T13:02:37.270Z,7.60
2019-03-18T13:05:05.353Z,7.70
2019-03-18T13:07:32.890Z,8.00
2019-03-18T13:10:00.767Z,8.00
2019-03-18T13:12:28.659Z,7.80
2019-03-18T13:14:56.217Z,7.90
2019-03-18T13:17:23.744Z,7.70
2019-03-18T13:19:51.401Z,7.80
2019-03-18T13:22:18.977Z,7.80
2019-03-18T13:24:46.524Z,7.70
2019-03-18T13:27:14.087Z,7.70
2019-03-18T13:29:41.633Z,7.60
2019-03-18T13:32:09.208Z,7.40
2019-03-18T13:34:36.725Z,7.40
2019-03-18T13:37:42.472Z,7.60
2019-03-18T13:40:11.023Z,7.90
2019-03-18T13:42:38.584Z,7.80
2019-03-18T13:45:07.974Z,7.90
2019-03-18T13:47:35.987Z,7.60
2019-03-18T13:50:03.872Z,7.60
2019-03-18T13:52:32.113Z,7.60
2019-03-18T13:54:59.674Z,7.80
2019-03-18T13:57:29.027Z,7.60
2019-03-18T13:59:56.680Z,7.70
2019-03-18T14:02:24.293Z,7.70
2019-03-18T14:04:51.846Z,7.80
2019-03-18T14:07:22.543Z,7.80
2019-03-18T14:09:56.128Z,7.70
2019-03-18T14:12:25.225Z,7.40
2019-03-18T14:14:56.265Z,7.60
2019-03-18T14:17:26.951Z,7.80
2019-03-18T14:19:56.202Z,7.90
2019-03-18T14:22:24.943Z,7.80
2019-03-18T14:24:54.241Z,7.80
2019-03-18T14:27:24.595Z,7.90
2019-03-18T14:29:56.319Z,8.00
2019-03-18T14:32:27.533Z,7.90
2019-03-18T14:34:59.745Z,7.80
2019-03-18T14:37:33.653Z,7.70
2019-03-18T14:40:31.745Z,7.50
2019-03-18T14:43:08.499Z,7.50
2019-03-18T14:45:49.295Z,7.40
2019-03-18T14:49:03.029Z,7.40
2019-03-18T14:51:55.192Z,7.40
2019-03-18T14:57:48.900Z,7.40
2019-03-18T15:00:21.821Z,7.30
2019-03-18T15:06:11.106Z,7.30
2019-03-18T15:09:07.358Z,7.10
2019-03-18T15:11:54.887Z,7.40
2019-03-18T15:14:26.290Z,7.50
2019-03-18T15:16:53.911Z,7.50
2019-03-18T15:19:21.449Z,7.30
2019-03-18T15:21:57.995Z,7.40
2019-03-18T15:24:18.750Z,7.20
2019-03-18T15:26:47.204Z,7.10
2019-03-18T15:29:16.020Z,7.20
2019-03-18T15:31:44.977Z,7.10
2019-03-18T15:34:14.608Z,7.20
2019-03-18T15:36:45.498Z,7.20
2019-03-18T15:39:15.109Z,7.30
2019-03-18T15:41:48.651Z,7.30
2019-03-18T15:44:41.019Z,7.20
2019-03-18T15:47:14.833Z,6.20
2019-03-18T15:52:12.167Z,7.20
2019-03-18T15:55:06.440Z,7.40
2019-03-18T15:57:38.280Z,7.30
2019-03-18T16:00:08.192Z,7.10
2019-03-18T16:02:35.997Z,7.00
2019-03-18T16:05:04.053Z,6.90
2019-03-18T16:07:31.730Z,7.00
2019-03-18T16:09:59.344Z,6.90
2019-03-18T16:12:27.045Z,6.90
2019-03-18T16:14:54.692Z,6.80
2019-03-18T16:17:22.311Z,6.80
2019-03-18T16:19:49.946Z,6.60
2019-03-18T16:22:23.376Z,6.60
2019-03-18T16:24:46.993Z,6.60
2019-03-18T16:27:14.634Z,6.50
2019-03-18T16:29:42.289Z,6.50
2019-03-18T16:32:11.656Z,6.50
2019-03-18T16:34:39.426Z,6.60
2019-03-18T16:37:07.026Z,6.40
2019-03-18T16:39:34.717Z,6.50
2019-03-18T16:42:02.294Z,6.40
2019-03-18T16:44:29.927Z,6.40
2019-03-18T16:46:57.520Z,6.20
2019-03-18T16:49:25.117Z,6.20
2019-03-18T16:51:52.845Z,6.10
2019-03-18T16:54:20.422Z,6.10
2019-03-18T16:56:48.081Z,6.00
2019-03-18T16:59:15.866Z,5.90
2019-03-18T17:01:43.425Z,5.90
2019-03-18T17:04:11.080Z,5.90
2019-03-18T17:06:38.713Z,5.90
2019-03-18T17:09:06.842Z,5.90
2019-03-18T17:11:34.566Z,5.70
2019-03-18T17:14:02.869Z,5.70
2019-03-18T17:16:30.705Z,5.70
2019-03-18T17:18:58.277Z,5.70
2019-03-18T17:21:25.954Z,5.70
2019-03-18T17:23:53.561Z,5.60
2019-03-18T17:26:21.156Z,5.50
2019-03-18T17:28:49.015Z,5.50
2019-03-18T17:31:17.391Z,5.40
2019-03-18T17:33:56.751Z,5.40
2019-03-18T17:36:24.814Z,5.50
2019-03-18T17:38:53.420Z,5.50
2019-03-18T17:41:20.950Z,5.20
2019-03-18T17:43:48.714Z,5.40
2019-03-18T17:46:16.389Z,5.30
2019-03-18T17:48:44.085Z,5.30
2019-03-18T17:51:11.776Z,5.40
2019-03-18T17:53:39.397Z,5.40
2019-03-18T17:56:06.961Z,5.20
2019-03-18T17:58:34.471Z,5.40
2019-03-18T18:01:02.210Z,5.30
2019-03-18T18:03:29.828Z,5.40
2019-03-18T18:05:57.509Z,5.30
2019-03-18T18:08:25.069Z,5.30
2019-03-18T18:10:52.844Z,5.20
2019-03-18T18:13:20.763Z,5.30
2019-03-18T18:15:48.477Z,5.30
2019-03-18T18:18:16.185Z,5.30
2019-03-18T18:20:43.788Z,5.20
2019-03-18T18:23:14.709Z,5.20
2019-03-18T18:25:40.918Z,5.10
2019-03-18T18:28:08.576Z,5.20
2019-03-18T18:30:36.228Z,5.10
2019-03-18T18:33:07.925Z,5.10
2019-03-18T18:35:35.617Z,5.10
2019-03-18T18:38:03.280Z,5.00
2019-03-18T18:40:31.643Z,4.90
2019-03-18T18:42:59.280Z,5.00
2019-03-18T18:45:27.968Z,5.00
2019-03-18T18:47:55.733Z,5.00
2019-03-18T18:50:23.283Z,5.00
2019-03-18T18:52:50.900Z,5.00
2019-03-18T18:55:18.542Z,4.90
2019-03-18T18:57:48.219Z,4.90
2019-03-18T19:00:15.994Z,5.00
2019-03-18T19:02:43.826Z,4.90
2019-03-18T19:05:12.113Z,4.90
2019-03-18T19:07:39.814Z,5.00
2019-03-18T19:10:08.388Z,4.90
2019-03-18T19:12:36.323Z,4.80
2019-03-18T19:15:11.577Z,4.80
2019-03-18T19:17:39.445Z,4.80
2019-03-18T19:20:07.957Z,4.90
2019-03-18T19:22:35.537Z,4.80
2019-03-18T19:25:03.856Z,4.90
2019-03-18T19:27:31.569Z,4.90
2019-03-18T19:29:59.249Z,5.00
2019-03-18T19:32:27.015Z,4.90
2019-03-18T19:34:54.770Z,4.90
2019-03-18T19:37:22.639Z,4.80
2019-03-18T19:39:50.246Z,4.80
2019-03-18T19:42:18.135Z,4.70
2019-03-18T19:44:45.816Z,4.60
2019-03-18T19:47:13.436Z,4.70
2019-03-18T19:49:40.988Z,4.60
2019-03-18T19:52:08.628Z,4.50
2019-03-18T19:54:37.369Z,4.50
2019-03-18T19:57:04.936Z,4.40
2019-03-18T19:59:32.541Z,4.50
2019-03-18T20:02:00.221Z,4.40
2019-03-18T20:04:27.904Z,4.30
2019-03-18T20:06:55.487Z,4.30
2019-03-18T20:09:23.184Z,4.20
2019-03-18T20:11:51.172Z,4.20
2019-03-18T20:14:18.712Z,4.10
2019-03-18T20:16:46.329Z,4.20
2019-03-18T20:19:13.966Z,4.30
2019-03-18T20:21:48.360Z,4.30
2019-03-18T20:24:15.970Z,4.30
2019-03-18T20:26:43.541Z,4.30
2019-03-18T20:29:11.198Z,4.20
2019-03-18T20:31:38.846Z,4.20
2019-03-18T20:34:06.556Z,4.40
2019-03-18T20:36:34.125Z,4.20
2019-03-18T20:39:11.147Z,4.20
2019-03-18T20:41:38.715Z,4.10
2019-03-18T20:44:06.313Z,4.00
2019-03-18T20:46:34.076Z,4.00
2019-03-18T20:49:01.698Z,4.10
2019-03-18T20:51:29.316Z,4.10
2019-03-18T20:53:57.035Z,4.00
2019-03-18T20:56:24.601Z,4.00
2019-03-18T20:58:52.202Z,4.00
2019-03-18T21:01:20.063Z,3.90
2019-03-18T21:03:48.000Z,3.90
2019-03-18T21:06:15.588Z,3.90
2019-03-18T21:08:43.594Z,3.90
2019-03-18T21:11:12.275Z,3.90
2019-03-18T21:13:40.031Z,4.00
2019-03-18T21:16:07.846Z,4.00
2019-03-18T21:18:37.534Z,4.00
2019-03-18T21:21:05.145Z,4.10
2019-03-18T21:23:32.750Z,4.00
2019-03-18T21:26:00.341Z,4.00
2019-03-18T21:28:28.014Z,3.90
2019-03-18T21:30:55.872Z,3.90
2019-03-18T21:33:23.397Z,3.90
2019-03-18T21:35:53.650Z,3.90
2019-03-18T21:38:20.685Z,3.90
2019-03-18T21:40:49.341Z,3.90
2019-03-18T21:43:16.937Z,3.90
2019-03-18T21:45:45.424Z,4.00
2019-03-18T21:48:14.095Z,4.00
2019-03-18T21:50:41.673Z,4.10
2019-03-18T21:53:09.322Z,3.90
2019-03-18T21:55:37.006Z,3.90
2019-03-18T21:58:04.677Z,3.80
2019-03-18T22:00:32.288Z,4.10
2019-03-18T22:02:59.845Z,3.70
2019-03-18T22:05:27.439Z,3.70
2019-03-18T22:07:55.034Z,3.70
2019-03-18T22:10:22.573Z,3.70
2019-03-18T22:12:50.129Z,3.70
2019-03-18T22:15:17.734Z,3.70
2019-03-18T22:17:45.477Z,3.70
2019-03-18T22:20:13.414Z,3.80
2019-03-18T22:22:41.040Z,3.70
2019-03-18T22:25:09.722Z,3.70
2019-03-18T22:27:37.306Z,3.80
2019-03-18T22:30:05.083Z,3.70
2019-03-18T22:32:32.645Z,3.70
2019-03-18T22:35:00.333Z,3.60
2019-03-18T22:37:27.863Z,3.60
2019-03-18T22:39:55.424Z,3.60
2019-03-18T22:42:23.305Z,3.50
2019-03-18T22:44:50.818Z,3.50
2019-03-18T22:47:18.352Z,3.50
2019-03-18T22:49:45.900Z,3.50
2019-03-18T22:52:13.439Z,3.40
2019-03-18T22:54:41.096Z,3.40
2019-03-18T22:57:08.671Z,3.40
2019-03-18T22:59:36.185Z,3.30
2019-03-18T23:02:04.762Z,3.30
2019-03-18T23:04:32.445Z,3.40
2019-03-18T23:06:59.985Z,3.30
2019-03-18T23:09:27.620Z,3.30
2019-03-18T23:11:55.244Z,3.30
2019-03-18T23:14:23.409Z,3.30
2019-03-18T23:16:51.009Z,3.30
2019-03-18T23:19:20.891Z,3.40
2019-03-18T23:21:47.984Z,3.40
2019-03-18T23:24:15.616Z,3.30
2019-03-18T23:26:43.182Z,3.40
2019-03-18T23:29:10.740Z,3.40
2019-03-18T23:31:38.300Z,3.30
2019-03-18T23:34:05.976Z,3.30
2019-03-18T23:36:33.532Z,3.30
2019-03-18T23:39:01.072Z,3.30
2019-03-18T23:41:28.625Z,3.20
2019-03-18T23:43:56.174Z,3.20
2019-03-18T23:46:23.784Z,3.10
2019-03-18T23:48:51.327Z,3.10
2019-03-18T23:51:18.895Z,3.00
2019-03-18T23:53:46.404Z,2.90
2019-03-18T23:56:14.108Z,3.00
2019-03-18T23:58:41.760Z,2.90
